Bea Sonier — WDF6688 — position and weather

sailwx.info

Track history (hours):
 
Tides and Currents Weather Stations Pressure Air Temp Water Temp Dewpoint Dewpoint Depression Visibility Wind Speed Wind Dir Waves Ship Positions

Bea Sonier

Owner: LeBeouf Bros. Towing, LLC, Houma, LA. More information available from US FCC via Universal Licensing System and Coast Guard Vessel Documentation Center.

Last reported at 2018-Jun-05 05:17 UTC. Time now 2018-Jun-20 09:05 UTC.
Position N 29°34' W 090°32'.
Warning: this ship's position is 15 days out of date.

Length 22 m; draft 3.3 m.

Type: Tug. MMSI: 367476840.

Date/timePositionNaut miles runAvg speedWind from/ knotsBaromVisibWave heightAir tempDewpointWater temp
2018-Jun-05 05:17N 29°34' W 090°32'2 5.0
2018-Jun-05 04:50N 29°34' W 090°34'1 4.4
2018-Jun-05 04:30N 29°35' W 090°36'2 4.8
2018-Jun-05 04:00N 29°35' W 090°38'2 4.6
2018-Jun-05 03:30N 29°36' W 090°41'1 1.9
2018-Jun-05 03:00N 29°37' W 090°42'0 0.1
2018-Jun-05 02:27N 29°37' W 090°42'0 0.0
2018-Jun-05 02:00N 29°37' W 090°42'0 0.0
2018-Jun-05 01:30N 29°37' W 090°42'0 0.0
2018-Jun-05 01:00N 29°37' W 090°42'0 0.0
2018-Jun-05 00:30N 29°37' W 090°42'0 0.0
2018-Jun-05 00:00N 29°37' W 090°42'0 0.0
2018-Jun-04 23:30N 29°37' W 090°42'0 0.0
2018-Jun-04 23:00N 29°37' W 090°42'0 0.0
2018-Jun-04 22:30N 29°37' W 090°42'0 0.0
2018-Jun-04 22:00N 29°37' W 090°42'0 0.0
2018-Jun-04 21:30N 29°37' W 090°42'0 0.0
2018-Jun-04 21:00N 29°37' W 090°42'0 0.0
2018-Jun-04 20:30N 29°37' W 090°42'0 0.0
2018-Jun-04 20:00N 29°37' W 090°42'0 0.0
2018-Jun-04 19:30N 29°37' W 090°42'0 0.0
2018-Jun-04 19:00N 29°37' W 090°42'0 0.0
2018-Jun-04 18:30N 29°37' W 090°42'0 0.0
2018-Jun-04 18:00N 29°37' W 090°42'0 0.0
2018-Jun-04 17:30N 29°37' W 090°42'0 0.0
2018-Jun-04 17:00N 29°37' W 090°42'0 0.0
2018-Jun-04 16:30N 29°37' W 090°42'0 0.0
2018-Jun-04 16:00N 29°37' W 090°42'0 0.0
2018-Jun-04 15:30N 29°37' W 090°42'0 0.0
2018-Jun-04 15:00N 29°37' W 090°42'0 0.0
2018-Jun-04 14:30N 29°37' W 090°42'0 0.0
2018-Jun-04 14:00N 29°37' W 090°42'0 0.0
2018-Jun-04 13:30N 29°37' W 090°42'0 0.0
2018-Jun-04 13:00N 29°37' W 090°42'0 0.0
2018-Jun-04 12:30N 29°37' W 090°42'0 0.0
2018-Jun-04 12:00N 29°37' W 090°42'0 0.0
2018-Jun-04 11:29N 29°37' W 090°42'0 0.0
2018-Jun-04 11:00N 29°37' W 090°42'0 0.0
2018-Jun-04 10:30N 29°37' W 090°42'0 0.0
2018-Jun-04 10:00N 29°37' W 090°42'0 0.0
2018-Jun-04 09:30N 29°37' W 090°42'0 0.0
2018-Jun-04 09:00N 29°37' W 090°42'0 0.0
2018-Jun-04 08:30N 29°37' W 090°42'0 0.0
2018-Jun-04 08:00N 29°37' W 090°42'0 0.0
2018-Jun-04 07:30N 29°37' W 090°42'0 0.0
2018-Jun-04 07:00N 29°37' W 090°42'0 0.0
2018-Jun-04 06:30N 29°37' W 090°42'0 0.0
2018-Jun-04 06:00N 29°37' W 090°42'0 0.0
2018-Jun-04 05:29N 29°37' W 090°42'0 0.0
2018-Jun-04 05:00N 29°37' W 090°42'0 0.0
2018-Jun-04 04:30N 29°37' W 090°42'0 0.0
2018-Jun-04 04:00N 29°37' W 090°42'0 0.0
2018-Jun-04 03:30N 29°37' W 090°42'0 0.0
2018-Jun-04 03:00N 29°37' W 090°42'0 0.0
2018-Jun-04 02:30N 29°37' W 090°42'0 0.0
2018-Jun-04 01:59N 29°37' W 090°42'0 0.0
2018-Jun-04 01:30N 29°37' W 090°42'0 0.0
2018-Jun-04 00:59N 29°37' W 090°42'0 0.0
2018-Jun-04 00:30N 29°37' W 090°42'0 0.0
2018-Jun-04 00:00N 29°37' W 090°42'0 0.2
2018-Jun-03 23:28N 29°37' W 090°42'3 6.3
2018-Jun-03 23:00N 29°35' W 090°39'3 5.2
2018-Jun-03 22:30N 29°35' W 090°36'0 0.1
2018-Jun-03 22:00N 29°35' W 090°36'1 1.2
2018-Jun-03 21:30N 29°35' W 090°35'3 5.3
2018-Jun-03 21:00N 29°34' W 090°32'  
2018-May-29 20:30N 29°34' W 090°32'3 5.9
2018-May-29 20:00N 29°35' W 090°35'2 3.8
2018-May-29 19:30N 29°35' W 090°38'2 4.7
2018-May-29 19:00N 29°36' W 090°40'2 4.1
2018-May-29 18:30N 29°37' W 090°42'2 4.8
2018-May-29 18:00N 29°35' W 090°43'2 4.4
2018-May-29 17:30N 29°33' W 090°45'3 5.9
2018-May-29 17:00N 29°32' W 090°48'4 6.9
2018-May-29 16:26N 29°32' W 090°53'3 7.0
2018-May-29 16:00N 29°34' W 090°56'6 0.2
2018-May-28 01:20N 29°32' W 090°49'2 7.5
2018-May-28 01:00N 29°32' W 090°46'3 6.3
2018-May-28 00:30N 29°34' W 090°43'3 5.5
2018-May-28 00:00N 29°37' W 090°42'3 6.7
2018-May-27 23:30N 29°35' W 090°39'3 5.2
2018-May-27 23:00N 29°35' W 090°36'0 0.4
2018-May-27 22:30N 29°35' W 090°36'1 1.0
2018-May-27 21:58N 29°34' W 090°36'0 0.0
2018-May-27 21:30N 29°34' W 090°36'0 0.0
2018-May-27 21:00N 29°34' W 090°36'0 0.0
2018-May-27 20:29N 29°34' W 090°36'0 0.0
2018-May-27 19:59N 29°34' W 090°36'0 0.0
2018-May-27 19:30N 29°34' W 090°36'1 1.0
2018-May-27 19:00N 29°35' W 090°36'3 6.2
2018-May-27 18:30N 29°36' W 090°39'3 5.5
2018-May-27 18:00N 29°36' W 090°43'2 3.1
2018-May-27 17:30N 29°35' W 090°43'0 0.0
2018-May-27 17:00N 29°35' W 090°43'0 0.0
2018-May-27 16:30N 29°35' W 090°43'0 0.0
2018-May-27 16:00N 29°35' W 090°43'0 0.0
2018-May-27 15:30N 29°35' W 090°43'0 0.0
2018-May-27 15:00N 29°35' W 090°43'2 3.6
2018-May-27 14:30N 29°37' W 090°42'3 6.7
2018-May-27 14:00N 29°36' W 090°39'3 6.0
2018-May-27 13:30N 29°35' W 090°36'0 0.4
2018-May-27 13:00N 29°34' W 090°36'0 0.0
2018-May-27 12:30N 29°34' W 090°36'0 0.0
2018-May-27 12:00N 29°34' W 090°36'0 0.0
2018-May-27 11:30N 29°34' W 090°36'0 0.0
2018-May-27 10:59N 29°34' W 090°36'0 0.0
2018-May-27 10:30N 29°34' W 090°36'0 0.0
2018-May-27 10:01N 29°34' W 090°36'0 0.0
2018-May-27 09:30N 29°34' W 090°36'0 0.0
2018-May-27 09:00N 29°34' W 090°36'0 0.0
2018-May-27 08:30N 29°34' W 090°36'0 0.0
2018-May-27 08:00N 29°34' W 090°36'0 0.0
2018-May-27 07:30N 29°34' W 090°36'0 0.0
2018-May-27 07:00N 29°34' W 090°36'0 0.0
2018-May-27 06:30N 29°34' W 090°36'0 0.0
2018-May-27 06:00N 29°34' W 090°36'0 0.0
2018-May-27 05:30N 29°34' W 090°36'0 0.0
2018-May-27 05:00N 29°34' W 090°36'0 0.0
2018-May-27 04:31N 29°34' W 090°36'0 0.9
2018-May-27 04:00N 29°35' W 090°36'1 2.8
2018-May-27 03:30N 29°34' W 090°34'3 6.0
2018-May-27 03:00N 29°34' W 090°31'5 7.3
2018-May-27 02:23N 29°33' W 090°26'  
Track history (hours):
 
Tides and Currents Weather Stations Pressure Air Temp Water Temp Dewpoint Dewpoint Depression Visibility Wind Speed Wind Dir Waves Ship Positions

Bea Sonier

Owner: LeBeouf Bros. Towing, LLC, Houma, LA. More information available from US FCC via Universal Licensing System and Coast Guard Vessel Documentation Center.

Last reported at 2018-Jun-05 05:17 UTC. Time now 2018-Jun-20 09:05 UTC.
Position N 29°34' W 090°32'.
Warning: this ship's position is 15 days out of date.

Length 22 m; draft 3.3 m.

Type: Tug. MMSI: 367476840.

Date/timePositionNaut miles runAvg speedWind from/ knotsBaromVisibWave heightAir tempDewpointWater temp
2018-Jun-05 05:17N 29°34' W 090°32'2 5.0
2018-Jun-05 04:50N 29°34' W 090°34'1 4.4
2018-Jun-05 04:30N 29°35' W 090°36'2 4.8
2018-Jun-05 04:00N 29°35' W 090°38'2 4.6
2018-Jun-05 03:30N 29°36' W 090°41'1 1.9
2018-Jun-05 03:00N 29°37' W 090°42'0 0.1
2018-Jun-05 02:27N 29°37' W 090°42'0 0.0
2018-Jun-05 02:00N 29°37' W 090°42'0 0.0
2018-Jun-05 01:30N 29°37' W 090°42'0 0.0
2018-Jun-05 01:00N 29°37' W 090°42'0 0.0
2018-Jun-05 00:30N 29°37' W 090°42'0 0.0
2018-Jun-05 00:00N 29°37' W 090°42'0 0.0
2018-Jun-04 23:30N 29°37' W 090°42'0 0.0
2018-Jun-04 23:00N 29°37' W 090°42'0 0.0
2018-Jun-04 22:30N 29°37' W 090°42'0 0.0
2018-Jun-04 22:00N 29°37' W 090°42'0 0.0
2018-Jun-04 21:30N 29°37' W 090°42'0 0.0
2018-Jun-04 21:00N 29°37' W 090°42'0 0.0
2018-Jun-04 20:30N 29°37' W 090°42'0 0.0
2018-Jun-04 20:00N 29°37' W 090°42'0 0.0
2018-Jun-04 19:30N 29°37' W 090°42'0 0.0
2018-Jun-04 19:00N 29°37' W 090°42'0 0.0
2018-Jun-04 18:30N 29°37' W 090°42'0 0.0
2018-Jun-04 18:00N 29°37' W 090°42'0 0.0
2018-Jun-04 17:30N 29°37' W 090°42'0 0.0
2018-Jun-04 17:00N 29°37' W 090°42'0 0.0
2018-Jun-04 16:30N 29°37' W 090°42'0 0.0
2018-Jun-04 16:00N 29°37' W 090°42'0 0.0
2018-Jun-04 15:30N 29°37' W 090°42'0 0.0
2018-Jun-04 15:00N 29°37' W 090°42'0 0.0
2018-Jun-04 14:30N 29°37' W 090°42'0 0.0
2018-Jun-04 14:00N 29°37' W 090°42'0 0.0
2018-Jun-04 13:30N 29°37' W 090°42'0 0.0
2018-Jun-04 13:00N 29°37' W 090°42'0 0.0
2018-Jun-04 12:30N 29°37' W 090°42'0 0.0
2018-Jun-04 12:00N 29°37' W 090°42'0 0.0
2018-Jun-04 11:29N 29°37' W 090°42'0 0.0
2018-Jun-04 11:00N 29°37' W 090°42'0 0.0
2018-Jun-04 10:30N 29°37' W 090°42'0 0.0
2018-Jun-04 10:00N 29°37' W 090°42'0 0.0
2018-Jun-04 09:30N 29°37' W 090°42'0 0.0
2018-Jun-04 09:00N 29°37' W 090°42'0 0.0
2018-Jun-04 08:30N 29°37' W 090°42'0 0.0
2018-Jun-04 08:00N 29°37' W 090°42'0 0.0
2018-Jun-04 07:30N 29°37' W 090°42'0 0.0
2018-Jun-04 07:00N 29°37' W 090°42'0 0.0
2018-Jun-04 06:30N 29°37' W 090°42'0 0.0
2018-Jun-04 06:00N 29°37' W 090°42'0 0.0
2018-Jun-04 05:29N 29°37' W 090°42'0 0.0
2018-Jun-04 05:00N 29°37' W 090°42'0 0.0
2018-Jun-04 04:30N 29°37' W 090°42'0 0.0
2018-Jun-04 04:00N 29°37' W 090°42'0 0.0
2018-Jun-04 03:30N 29°37' W 090°42'0 0.0
2018-Jun-04 03:00N 29°37' W 090°42'0 0.0
2018-Jun-04 02:30N 29°37' W 090°42'0 0.0
2018-Jun-04 01:59N 29°37' W 090°42'0 0.0
2018-Jun-04 01:30N 29°37' W 090°42'0 0.0
2018-Jun-04 00:59N 29°37' W 090°42'0 0.0
2018-Jun-04 00:30N 29°37' W 090°42'0 0.0
2018-Jun-04 00:00N 29°37' W 090°42'0 0.2
2018-Jun-03 23:28N 29°37' W 090°42'3 6.3
2018-Jun-03 23:00N 29°35' W 090°39'3 5.2
2018-Jun-03 22:30N 29°35' W 090°36'0 0.1
2018-Jun-03 22:00N 29°35' W 090°36'1 1.2
2018-Jun-03 21:30N 29°35' W 090°35'3 5.3
2018-Jun-03 21:00N 29°34' W 090°32'  
2018-May-29 20:30N 29°34' W 090°32'3 5.9
2018-May-29 20:00N 29°35' W 090°35'2 3.8
2018-May-29 19:30N 29°35' W 090°38'2 4.7
2018-May-29 19:00N 29°36' W 090°40'2 4.1
2018-May-29 18:30N 29°37' W 090°42'2 4.8
2018-May-29 18:00N 29°35' W 090°43'2 4.4
2018-May-29 17:30N 29°33' W 090°45'3 5.9
2018-May-29 17:00N 29°32' W 090°48'4 6.9
2018-May-29 16:26N 29°32' W 090°53'3 7.0
2018-May-29 16:00N 29°34' W 090°56'6 0.2
2018-May-28 01:20N 29°32' W 090°49'2 7.5
2018-May-28 01:00N 29°32' W 090°46'3 6.3
2018-May-28 00:30N 29°34' W 090°43'3 5.5
2018-May-28 00:00N 29°37' W 090°42'3 6.7
2018-May-27 23:30N 29°35' W 090°39'3 5.2
2018-May-27 23:00N 29°35' W 090°36'0 0.4
2018-May-27 22:30N 29°35' W 090°36'1 1.0
2018-May-27 21:58N 29°34' W 090°36'0 0.0
2018-May-27 21:30N 29°34' W 090°36'0 0.0
2018-May-27 21:00N 29°34' W 090°36'0 0.0
2018-May-27 20:29N 29°34' W 090°36'0 0.0
2018-May-27 19:59N 29°34' W 090°36'0 0.0
2018-May-27 19:30N 29°34' W 090°36'1 1.0
2018-May-27 19:00N 29°35' W 090°36'3 6.2
2018-May-27 18:30N 29°36' W 090°39'3 5.5
2018-May-27 18:00N 29°36' W 090°43'2 3.1
2018-May-27 17:30N 29°35' W 090°43'0 0.0
2018-May-27 17:00N 29°35' W 090°43'0 0.0
2018-May-27 16:30N 29°35' W 090°43'0 0.0
2018-May-27 16:00N 29°35' W 090°43'0 0.0
2018-May-27 15:30N 29°35' W 090°43'0 0.0
2018-May-27 15:00N 29°35' W 090°43'2 3.6
2018-May-27 14:30N 29°37' W 090°42'3 6.7
2018-May-27 14:00N 29°36' W 090°39'3 6.0
2018-May-27 13:30N 29°35' W 090°36'0 0.4
2018-May-27 13:00N 29°34' W 090°36'0 0.0
2018-May-27 12:30N 29°34' W 090°36'0 0.0
2018-May-27 12:00N 29°34' W 090°36'0 0.0
2018-May-27 11:30N 29°34' W 090°36'0 0.0
2018-May-27 10:59N 29°34' W 090°36'0 0.0
2018-May-27 10:30N 29°34' W 090°36'0 0.0
2018-May-27 10:01N 29°34' W 090°36'0 0.0
2018-May-27 09:30N 29°34' W 090°36'0 0.0
2018-May-27 09:00N 29°34' W 090°36'0 0.0
2018-May-27 08:30N 29°34' W 090°36'0 0.0
2018-May-27 08:00N 29°34' W 090°36'0 0.0
2018-May-27 07:30N 29°34' W 090°36'0 0.0
2018-May-27 07:00N 29°34' W 090°36'0 0.0
2018-May-27 06:30N 29°34' W 090°36'0 0.0
2018-May-27 06:00N 29°34' W 090°36'0 0.0
2018-May-27 05:30N 29°34' W 090°36'0 0.0
2018-May-27 05:00N 29°34' W 090°36'0 0.0
2018-May-27 04:31N 29°34' W 090°36'0 0.9
2018-May-27 04:00N 29°35' W 090°36'1 2.8
2018-May-27 03:30N 29°34' W 090°34'3 6.0
2018-May-27 03:00N 29°34' W 090°31'5 7.3
2018-May-27 02:23N 29°33' W 090°26'  

Dump ship's entire track history